APL New Jersey — A8NM6 — position and weather

sailwx.info

Track history (hours):
 
Tides and Currents Weather Stations Pressure Air Temp Water Temp Dewpoint Dewpoint Depression Visibility Wind Speed Wind Dir Waves Ship Positions

APL New Jersey

Last reported at 2017-Feb-13 18:31 UTC. Time now 2017-Feb-23 07:15 UTC.
Position N 38°23' W 128°10'.
Warning: this ship's position is 9 days out of date.

Length 293 m; draft 12.1 m.

Type: Cargo ship. MMSI: 636013522.

Date/timePositionNaut miles runAvg speedWind from/ knotsBaromVisibWave heightAir tempDewpointWater temp
2017-Feb-13 18:31N 38°23' W 128°10'1818.9
2017-Feb-13 17:33N 38°09' W 127°54'1615.8
2017-Feb-13 16:33N 38°08' W 127°34'1616.2
2017-Feb-13 15:33N 38°08' W 127°13'1716.7
2017-Feb-13 14:33N 38°09' W 126°52'1816.6
2017-Feb-13 13:28N 38°08' W 126°29'2016.6
2017-Feb-13 12:16N 38°08' W 126°04'1216.9
2017-Feb-13 11:33N 38°09' W 125°49'1716.9
2017-Feb-13 10:33N 38°09' W 125°27'1716.7
2017-Feb-13 09:33N 38°09' W 125°06'1716.5
2017-Feb-13 08:33N 38°09' W 124°45'1616.2
2017-Feb-13 07:33N 38°09' W 124°24'1615.8
2017-Feb-13 06:34N 38°09' W 124°04'1615.9
2017-Feb-13 05:34N 38°09' W 123°44'1615.6
2017-Feb-13 04:33N 38°09' W 123°24'1414.4
2017-Feb-13 03:33N 37°60' W 123°10'1515.2
2017-Feb-13 02:33N 37°52' W 122°54'1211.8
2017-Feb-13 01:34N 37°46' W 122°41'1413.6
2017-Feb-13 00:33N 37°50' W 122°24'4 4.3
2017-Feb-12 23:33N 37°48' W 122°19'0 0.0
2017-Feb-12 22:33N 37°48' W 122°19'0 0.0
2017-Feb-12 21:33N 37°48' W 122°19'0 0.0
2017-Feb-12 20:33N 37°48' W 122°19'0 0.0
2017-Feb-12 19:33N 37°48' W 122°19'0 0.0
2017-Feb-12 18:33N 37°48' W 122°19'0 0.0
2017-Feb-12 17:33N 37°48' W 122°19'0 0.0
2017-Feb-12 16:33N 37°48' W 122°19'0 0.0
2017-Feb-12 15:33N 37°48' W 122°19'0 0.0
2017-Feb-12 14:33N 37°48' W 122°19'0 0.0
2017-Feb-12 13:33N 37°48' W 122°19'0 0.0
2017-Feb-12 12:33N 37°48' W 122°19'0 0.0
2017-Feb-12 11:33N 37°48' W 122°19'0 0.0
2017-Feb-12 10:33N 37°48' W 122°19'0 0.0
2017-Feb-12 09:33N 37°48' W 122°19'0 0.0
2017-Feb-12 08:33N 37°48' W 122°19'0 0.0
2017-Feb-12 07:33N 37°48' W 122°19'0 0.0
2017-Feb-12 06:33N 37°48' W 122°19'0 0.0
2017-Feb-12 05:33N 37°48' W 122°19'0 0.0
2017-Feb-12 04:33N 37°48' W 122°19'0 0.0
2017-Feb-12 03:33N 37°48' W 122°19'1 1.2
2017-Feb-12 02:33N 37°48' W 122°18'0 0.4
2017-Feb-12 01:34N 37°48' W 122°17'5 5.4
2017-Feb-12 00:33N 37°49' W 122°24'7 7.0
2017-Feb-11 23:33N 37°47' W 122°33'9 9.2
2017-Feb-11 22:33N 37°40' W 122°40'1615.7
2017-Feb-11 21:33N 37°25' W 122°41'1919.2
2017-Feb-11 20:33N 37°06' W 122°38'2019.9
2017-Feb-11 19:32N 36°46' W 122°30'2020.2
2017-Feb-11 18:33N 36°28' W 122°20'2020.0
2017-Feb-11 17:33N 36°10' W 122°10'2020.4
2017-Feb-11 16:33N 35°51' W 122°00'2120.5
2017-Feb-11 15:32N 35°33' W 121°47'19517.7
2017-Feb-11 04:33N 33°43' W 118°31'1111.6
2017-Feb-11 03:33N 33°38' W 118°19'6 6.4
2017-Feb-11 02:32N 33°45' W 118°17'1 0.4
2017-Feb-11 00:21N 33°45' W 118°16'0 0.0
2017-Feb-10 23:27N 33°45' W 118°16'0 0.0
2017-Feb-10 22:33N 33°45' W 118°16'0 0.0
2017-Feb-10 21:33N 33°45' W 118°16'0 0.0
2017-Feb-10 19:27N 33°45' W 118°16'0 0.0
2017-Feb-10 18:33N 33°45' W 118°16'0 0.0
2017-Feb-10 17:33N 33°45' W 118°16'0 0.0
2017-Feb-10 16:33N 33°45' W 118°16'0 0.0
2017-Feb-10 15:30N 33°45' W 118°16'0 0.0
2017-Feb-10 14:33N 33°45' W 118°16'0 0.0
2017-Feb-10 13:30N 33°45' W 118°16'0 0.0
2017-Feb-10 12:32N 33°45' W 118°16'0 0.0
2017-Feb-10 11:29N 33°45' W 118°16'0 0.0
2017-Feb-10 10:32N 33°45' W 118°16'0 0.0
2017-Feb-10 09:08N 33°45' W 118°16'0 0.0
2017-Feb-10 08:21N 33°45' W 118°16'0 0.0
2017-Feb-10 07:27N 33°45' W 118°16'0 0.0
2017-Feb-10 06:33N 33°45' W 118°16'0 0.0
2017-Feb-10 05:33N 33°45' W 118°16'0 0.0
2017-Feb-10 04:32N 33°45' W 118°16'0 0.0
2017-Feb-10 03:33N 33°45' W 118°16'0 0.0
2017-Feb-10 02:29N 33°45' W 118°16'0 0.0
2017-Feb-10 01:33N 33°45' W 118°16'0 0.0
2017-Feb-10 00:33N 33°45' W 118°16'0 0.0
2017-Feb-09 23:33N 33°45' W 118°16'0 0.0
2017-Feb-09 22:32N 33°45' W 118°16'0 0.0
2017-Feb-09 21:30N 33°45' W 118°16'0 0.0
2017-Feb-09 20:33N 33°45' W 118°16'0 0.0
2017-Feb-09 19:32N 33°45' W 118°16'0 0.0
2017-Feb-09 18:27N 33°45' W 118°16'0 0.0
2017-Feb-09 17:30N 33°45' W 118°16'0 0.0
2017-Feb-09 16:33N 33°45' W 118°16'0 0.0
2017-Feb-09 15:32N 33°45' W 118°16'0 0.1
2017-Feb-09 14:33N 33°45' W 118°16'0 0.1
2017-Feb-09 13:33N 33°45' W 118°16'0 0.0
2017-Feb-09 12:33N 33°45' W 118°16'0 0.0
2017-Feb-09 11:33N 33°45' W 118°16'0 0.0
2017-Feb-09 10:27N 33°45' W 118°16'0 0.0
2017-Feb-09 09:33N 33°45' W 118°16'0 0.0
2017-Feb-09 07:27N 33°45' W 118°16'0 0.0
2017-Feb-09 06:27N 33°45' W 118°16'0 0.0
2017-Feb-09 03:26N 33°45' W 118°16'0 0.0
2017-Feb-09 01:30N 33°45' W 118°16'0 0.0
2017-Feb-09 00:15N 33°45' W 118°16'0 0.0
2017-Feb-08 23:33N 33°45' W 118°16'183 3.7
2017-Feb-06 22:32N 34°37' W 121°48'1212.1
2017-Feb-06 21:32N 34°40' W 122°03'1212.4
2017-Feb-06 20:33N 34°43' W 122°17'1512.3
2017-Feb-06 19:20N 34°46' W 122°35'1113.6
2017-Feb-06 18:32N 34°49' W 122°47'1615.0
2017-Feb-06 17:27N 34°53' W 123°06'1815.0
2017-Feb-06 16:13N 34°57' W 123°28'  
Track history (hours):
 
Tides and Currents Weather Stations Pressure Air Temp Water Temp Dewpoint Dewpoint Depression Visibility Wind Speed Wind Dir Waves Ship Positions

APL New Jersey

Last reported at 2017-Feb-13 18:31 UTC. Time now 2017-Feb-23 07:15 UTC.
Position N 38°23' W 128°10'.
Warning: this ship's position is 9 days out of date.

Length 293 m; draft 12.1 m.

Type: Cargo ship. MMSI: 636013522.

Date/timePositionNaut miles runAvg speedWind from/ knotsBaromVisibWave heightAir tempDewpointWater temp
2017-Feb-13 18:31N 38°23' W 128°10'1818.9
2017-Feb-13 17:33N 38°09' W 127°54'1615.8
2017-Feb-13 16:33N 38°08' W 127°34'1616.2
2017-Feb-13 15:33N 38°08' W 127°13'1716.7
2017-Feb-13 14:33N 38°09' W 126°52'1816.6
2017-Feb-13 13:28N 38°08' W 126°29'2016.6
2017-Feb-13 12:16N 38°08' W 126°04'1216.9
2017-Feb-13 11:33N 38°09' W 125°49'1716.9
2017-Feb-13 10:33N 38°09' W 125°27'1716.7
2017-Feb-13 09:33N 38°09' W 125°06'1716.5
2017-Feb-13 08:33N 38°09' W 124°45'1616.2
2017-Feb-13 07:33N 38°09' W 124°24'1615.8
2017-Feb-13 06:34N 38°09' W 124°04'1615.9
2017-Feb-13 05:34N 38°09' W 123°44'1615.6
2017-Feb-13 04:33N 38°09' W 123°24'1414.4
2017-Feb-13 03:33N 37°60' W 123°10'1515.2
2017-Feb-13 02:33N 37°52' W 122°54'1211.8
2017-Feb-13 01:34N 37°46' W 122°41'1413.6
2017-Feb-13 00:33N 37°50' W 122°24'4 4.3
2017-Feb-12 23:33N 37°48' W 122°19'0 0.0
2017-Feb-12 22:33N 37°48' W 122°19'0 0.0
2017-Feb-12 21:33N 37°48' W 122°19'0 0.0
2017-Feb-12 20:33N 37°48' W 122°19'0 0.0
2017-Feb-12 19:33N 37°48' W 122°19'0 0.0
2017-Feb-12 18:33N 37°48' W 122°19'0 0.0
2017-Feb-12 17:33N 37°48' W 122°19'0 0.0
2017-Feb-12 16:33N 37°48' W 122°19'0 0.0
2017-Feb-12 15:33N 37°48' W 122°19'0 0.0
2017-Feb-12 14:33N 37°48' W 122°19'0 0.0
2017-Feb-12 13:33N 37°48' W 122°19'0 0.0
2017-Feb-12 12:33N 37°48' W 122°19'0 0.0
2017-Feb-12 11:33N 37°48' W 122°19'0 0.0
2017-Feb-12 10:33N 37°48' W 122°19'0 0.0
2017-Feb-12 09:33N 37°48' W 122°19'0 0.0
2017-Feb-12 08:33N 37°48' W 122°19'0 0.0
2017-Feb-12 07:33N 37°48' W 122°19'0 0.0
2017-Feb-12 06:33N 37°48' W 122°19'0 0.0
2017-Feb-12 05:33N 37°48' W 122°19'0 0.0
2017-Feb-12 04:33N 37°48' W 122°19'0 0.0
2017-Feb-12 03:33N 37°48' W 122°19'1 1.2
2017-Feb-12 02:33N 37°48' W 122°18'0 0.4
2017-Feb-12 01:34N 37°48' W 122°17'5 5.4
2017-Feb-12 00:33N 37°49' W 122°24'7 7.0
2017-Feb-11 23:33N 37°47' W 122°33'9 9.2
2017-Feb-11 22:33N 37°40' W 122°40'1615.7
2017-Feb-11 21:33N 37°25' W 122°41'1919.2
2017-Feb-11 20:33N 37°06' W 122°38'2019.9
2017-Feb-11 19:32N 36°46' W 122°30'2020.2
2017-Feb-11 18:33N 36°28' W 122°20'2020.0
2017-Feb-11 17:33N 36°10' W 122°10'2020.4
2017-Feb-11 16:33N 35°51' W 122°00'2120.5
2017-Feb-11 15:32N 35°33' W 121°47'19517.7
2017-Feb-11 04:33N 33°43' W 118°31'1111.6
2017-Feb-11 03:33N 33°38' W 118°19'6 6.4
2017-Feb-11 02:32N 33°45' W 118°17'1 0.4
2017-Feb-11 00:21N 33°45' W 118°16'0 0.0
2017-Feb-10 23:27N 33°45' W 118°16'0 0.0
2017-Feb-10 22:33N 33°45' W 118°16'0 0.0
2017-Feb-10 21:33N 33°45' W 118°16'0 0.0
2017-Feb-10 19:27N 33°45' W 118°16'0 0.0
2017-Feb-10 18:33N 33°45' W 118°16'0 0.0
2017-Feb-10 17:33N 33°45' W 118°16'0 0.0
2017-Feb-10 16:33N 33°45' W 118°16'0 0.0
2017-Feb-10 15:30N 33°45' W 118°16'0 0.0
2017-Feb-10 14:33N 33°45' W 118°16'0 0.0
2017-Feb-10 13:30N 33°45' W 118°16'0 0.0
2017-Feb-10 12:32N 33°45' W 118°16'0 0.0
2017-Feb-10 11:29N 33°45' W 118°16'0 0.0
2017-Feb-10 10:32N 33°45' W 118°16'0 0.0
2017-Feb-10 09:08N 33°45' W 118°16'0 0.0
2017-Feb-10 08:21N 33°45' W 118°16'0 0.0
2017-Feb-10 07:27N 33°45' W 118°16'0 0.0
2017-Feb-10 06:33N 33°45' W 118°16'0 0.0
2017-Feb-10 05:33N 33°45' W 118°16'0 0.0
2017-Feb-10 04:32N 33°45' W 118°16'0 0.0
2017-Feb-10 03:33N 33°45' W 118°16'0 0.0
2017-Feb-10 02:29N 33°45' W 118°16'0 0.0
2017-Feb-10 01:33N 33°45' W 118°16'0 0.0
2017-Feb-10 00:33N 33°45' W 118°16'0 0.0
2017-Feb-09 23:33N 33°45' W 118°16'0 0.0
2017-Feb-09 22:32N 33°45' W 118°16'0 0.0
2017-Feb-09 21:30N 33°45' W 118°16'0 0.0
2017-Feb-09 20:33N 33°45' W 118°16'0 0.0
2017-Feb-09 19:32N 33°45' W 118°16'0 0.0
2017-Feb-09 18:27N 33°45' W 118°16'0 0.0
2017-Feb-09 17:30N 33°45' W 118°16'0 0.0
2017-Feb-09 16:33N 33°45' W 118°16'0 0.0
2017-Feb-09 15:32N 33°45' W 118°16'0 0.1
2017-Feb-09 14:33N 33°45' W 118°16'0 0.1
2017-Feb-09 13:33N 33°45' W 118°16'0 0.0
2017-Feb-09 12:33N 33°45' W 118°16'0 0.0
2017-Feb-09 11:33N 33°45' W 118°16'0 0.0
2017-Feb-09 10:27N 33°45' W 118°16'0 0.0
2017-Feb-09 09:33N 33°45' W 118°16'0 0.0
2017-Feb-09 07:27N 33°45' W 118°16'0 0.0
2017-Feb-09 06:27N 33°45' W 118°16'0 0.0
2017-Feb-09 03:26N 33°45' W 118°16'0 0.0
2017-Feb-09 01:30N 33°45' W 118°16'0 0.0
2017-Feb-09 00:15N 33°45' W 118°16'0 0.0
2017-Feb-08 23:33N 33°45' W 118°16'183 3.7
2017-Feb-06 22:32N 34°37' W 121°48'1212.1
2017-Feb-06 21:32N 34°40' W 122°03'1212.4
2017-Feb-06 20:33N 34°43' W 122°17'1512.3
2017-Feb-06 19:20N 34°46' W 122°35'1113.6
2017-Feb-06 18:32N 34°49' W 122°47'1615.0
2017-Feb-06 17:27N 34°53' W 123°06'1815.0
2017-Feb-06 16:13N 34°57' W 123°28'  

Dump ship's entire track history